Time;durP1;ratioP1;P1;durP2;ratioP2;P2;SDS_P1;SDS_P2;PMS_P1;PMS_P2;Temp;Humidity;BMP_temperature;BMP_pressure;BME280_temperature;BME280_humidity;BME280_pressure;Samples;Min_cycle;Max_cycle;Signal;HPM_P1;HPM_P2
2023/11/30 00:01:08;;;;;;;16.15;14.40;;;;;;;0.73;95.74;99555.13;7389389;19;20912;-58
2023/11/30 00:03:35;;;;;;;16.95;15.15;;;;;;;0.73;95.86;99565.56;7387650;19;20444;-59
2023/11/30 00:06:02;;;;;;;16.77;14.98;;;;;;;0.69;95.97;99565.00;7390056;19;20691;-58
2023/11/30 00:08:29;;;;;;;16.13;14.43;;;;;;;0.68;95.96;99571.19;7390855;19;20381;-58
2023/11/30 00:10:56;;;;;;;17.45;14.20;;;;;;;0.66;95.86;99569.66;7388937;19;20360;-58
2023/11/30 00:13:22;;;;;;;16.10;14.23;;;;;;;0.61;95.81;99578.72;7389532;19;20371;-59
2023/11/30 00:15:49;;;;;;;16.77;14.82;;;;;;;0.58;96.09;99573.00;7393419;19;20356;-59
2023/11/30 00:18:16;;;;;;;15.55;13.95;;;;;;;0.53;96.22;99570.78;7395797;19;20356;-59
2023/11/30 00:20:43;;;;;;;16.02;13.90;;;;;;;0.49;96.58;99579.00;7398456;19;20380;-58
2023/11/30 00:23:10;;;;;;;15.27;13.77;;;;;;;0.46;96.59;99568.88;7399018;19;20364;-58
2023/11/30 00:25:36;;;;;;;16.10;14.20;;;;;;;0.45;96.92;99573.25;7397997;19;20340;-58
2023/11/30 00:28:04;;;;;;;15.05;13.55;;;;;;;0.42;97.03;99575.31;7396745;19;20428;-58
2023/11/30 00:30:30;;;;;;;15.85;14.10;;;;;;;0.45;97.41;99583.69;7397186;19;20883;-59
2023/11/30 00:32:57;;;;;;;16.10;13.80;;;;;;;0.46;97.39;99580.13;7397491;19;20382;-58
2023/11/30 00:35:24;;;;;;;16.35;14.20;;;;;;;0.46;97.28;99576.69;7397542;19;20405;-59
2023/11/30 00:37:51;;;;;;;15.90;14.30;;;;;;;0.48;97.32;99583.41;7395536;19;20340;-60
2023/11/30 00:40:18;;;;;;;16.17;14.48;;;;;;;0.51;97.46;99579.69;7396832;19;20678;-59
2023/11/30 00:42:46;;;;;;;15.23;13.63;;;;;;;0.51;97.42;99582.31;7397594;19;20367;-59
2023/11/30 00:45:13;;;;;;;15.80;14.07;;;;;;;0.53;97.52;99583.00;7398080;19;20329;-59
2023/11/30 00:47:41;;;;;;;16.77;14.23;;;;;;;0.55;97.58;99587.13;7393588;19;20394;-60
2023/11/30 00:50:08;;;;;;;15.40;13.50;;;;;;;0.58;97.48;99584.25;7393204;19;20523;-58
2023/11/30 00:52:35;;;;;;;15.93;14.32;;;;;;;0.60;97.61;99582.31;7398045;19;20433;-59
2023/11/30 00:55:03;;;;;;;14.70;13.05;;;;;;;0.60;97.33;99584.94;7394958;19;20396;-61
2023/11/30 00:57:29;;;;;;;14.93;13.32;;;;;;;0.63;97.40;99583.00;7395299;19;20726;-59
2023/11/30 01:00:00;;;;;;;15.93;13.30;;;;;;;0.62;97.24;99584.81;7394390;19;20899;-60
2023/11/30 01:02:27;;;;;;;15.80;13.68;;;;;;;0.66;97.42;99585.31;7395806;19;20705;-59
2023/11/30 01:04:54;;;;;;;14.85;12.82;;;;;;;0.68;97.25;99584.25;7396430;19;20700;-59
2023/11/30 01:07:21;;;;;;;15.20;12.98;;;;;;;0.71;97.21;99583.97;7394557;19;20415;-58
2023/11/30 01:09:47;;;;;;;15.18;13.57;;;;;;;0.74;97.16;99582.84;7388933;19;20372;-60
2023/11/30 01:12:15;;;;;;;13.77;12.43;;;;;;;0.75;96.92;99592.34;7396001;19;20370;-60
2023/11/30 01:14:41;;;;;;;14.80;12.43;;;;;;;0.77;96.76;99593.03;7395590;19;20369;-59
2023/11/30 01:17:09;;;;;;;14.35;12.38;;;;;;;0.78;96.78;99592.88;7393622;19;20381;-58
2023/11/30 01:19:36;;;;;;;14.68;13.18;;;;;;;0.82;96.70;99589.03;7392046;19;20913;-60
2023/11/30 01:22:05;;;;;;;14.43;12.93;;;;;;;0.85;96.64;99592.31;7397746;19;20385;-58
2023/11/30 01:24:31;;;;;;;14.90;13.38;;;;;;;0.84;96.57;99596.72;7395001;19;20361;-61
2023/11/30 01:26:58;;;;;;;15.50;13.57;;;;;;;0.84;96.41;99598.50;7393324;19;20694;-59
2023/11/30 01:29:25;;;;;;;18.35;16.45;;;;;;;0.85;96.30;99597.53;7396380;19;20772;-60
2023/11/30 01:31:52;;;;;;;14.82;13.25;;;;;;;0.82;96.36;99599.47;7393570;19;20344;-61
2023/11/30 01:34:19;;;;;;;14.27;12.73;;;;;;;0.84;96.45;99598.50;7395532;19;20454;-59
2023/11/30 01:36:46;;;;;;;13.93;12.52;;;;;;;0.85;96.35;99602.75;7394926;19;20353;-59
2023/11/30 01:39:15;;;;;;;13.93;12.43;;;;;;;0.86;96.16;99601.81;7392320;19;20445;-59
2023/11/30 01:41:42;;;;;;;14.27;12.77;;;;;;;0.86;96.08;99601.81;7394319;19;20368;-59
2023/11/30 01:44:10;;;;;;;15.88;14.30;;;;;;;0.82;96.01;99596.03;7393311;19;20344;-60
2023/11/30 01:46:37;;;;;;;16.27;14.20;;;;;;;0.78;95.87;99595.47;7395075;19;20364;-59
2023/11/30 01:49:06;;;;;;;16.27;14.52;;;;;;;0.75;95.96;99590.56;7395839;19;20369;-59
2023/11/30 01:51:36;;;;;;;17.58;15.77;;;;;;;0.72;95.68;99584.78;7394392;19;20368;-59
2023/11/30 01:54:05;;;;;;;16.25;14.52;;;;;;;0.66;95.57;99580.09;7395343;19;20379;-59
2023/11/30 01:56:33;;;;;;;15.60;13.93;;;;;;;0.60;95.59;99586.72;7394720;19;20805;-58
2023/11/30 01:59:00;;;;;;;16.53;14.90;;;;;;;0.54;95.53;99587.28;7390697;19;20416;-59
2023/11/30 02:01:27;;;;;;;16.70;15.10;;;;;;;0.45;95.38;99582.84;7391973;19;20397;-58
2023/11/30 02:03:54;;;;;;;17.17;14.98;;;;;;;0.37;95.14;99576.53;7390065;19;20356;-60
2023/11/30 02:06:21;;;;;;;18.00;16.13;;;;;;;0.29;95.36;99578.19;7391752;19;20361;-59
2023/11/30 02:08:48;;;;;;;16.33;14.73;;;;;;;0.21;95.38;99576.25;7393963;19;20366;-60
2023/11/30 02:11:15;;;;;;;18.20;16.30;;;;;;;0.12;95.21;99575.28;7391570;19;20388;-59
2023/11/30 02:13:42;;;;;;;15.60;13.90;;;;;;;0.02;95.38;99590.09;7391543;19;20372;-58
2023/11/30 02:16:09;;;;;;;16.27;14.57;;;;;;;-0.07;95.41;99577.88;7392612;19;20384;-59
2023/11/30 02:18:36;;;;;;;19.75;17.60;;;;;;;-0.16;95.46;99582.09;7392728;19;20363;-60
2023/11/30 02:21:03;;;;;;;21.20;17.95;;;;;;;-0.23;95.90;99575.78;7391003;19;20375;-59
2023/11/30 02:23:30;;;;;;;16.77;14.98;;;;;;;-0.30;95.94;99578.09;7393309;19;20360;-59
2023/11/30 02:25:57;;;;;;;15.50;13.90;;;;;;;-0.36;95.89;99577.78;7392912;19;20353;-57
2023/11/30 02:28:24;;;;;;;15.93;14.23;;;;;;;-0.45;96.00;99580.25;7392417;19;20364;-58
2023/11/30 02:30:51;;;;;;;15.98;14.27;;;;;;;-0.50;96.09;99577.19;7393545;19;20345;-57
2023/11/30 02:33:18;;;;;;;16.05;14.45;;;;;;;-0.54;96.30;99570.59;7394247;19;20779;-59
2023/11/30 02:35:45;;;;;;;16.10;14.10;;;;;;;-0.58;96.13;99564.00;7394886;19;20438;-59
2023/11/30 02:38:12;;;;;;;17.10;15.02;;;;;;;-0.63;96.23;99564.41;7392466;19;20802;-58
2023/11/30 02:40:38;;;;;;;16.70;14.90;;;;;;;-0.68;96.16;99563.13;7390630;19;20445;-59
2023/11/30 02:43:05;;;;;;;16.88;15.00;;;;;;;-0.73;96.39;99554.88;7394864;19;20683;-57
2023/11/30 02:45:32;;;;;;;17.17;15.07;;;;;;;-0.77;96.30;99563.91;7393357;19;20357;-56
2023/11/30 02:48:00;;;;;;;17.33;15.35;;;;;;;-0.83;96.42;99560.03;7389054;19;20784;-58
2023/11/30 02:50:27;;;;;;;18.80;15.55;;;;;;;-0.90;96.54;99564.94;7389194;19;20401;-58
2023/11/30 02:52:54;;;;;;;17.33;15.43;;;;;;;-0.97;96.54;99558.63;7389862;19;20374;-59
2023/11/30 02:55:21;;;;;;;17.63;15.35;;;;;;;-1.04;97.09;99560.91;7386363;19;20341;-59
2023/11/30 02:57:49;;;;;;;18.50;16.13;;;;;;;-1.10;97.16;99555.41;7388919;19;20369;-60
2023/11/30 03:00:16;;;;;;;18.10;16.10;;;;;;;-1.14;97.07;99559.22;7389609;19;20360;-58
2023/11/30 03:02:43;;;;;;;18.90;16.00;;;;;;;-1.17;97.38;99570.72;7389766;19;20492;-59
2023/11/30 03:05:10;;;;;;;17.75;15.85;;;;;;;-1.19;97.45;99553.53;7393091;19;20361;-59
2023/11/30 03:07:37;;;;;;;20.52;15.95;;;;;;;-1.20;97.70;99557.13;7391792;19;20390;-58
2023/11/30 03:10:04;;;;;;;19.03;15.90;;;;;;;-1.21;97.77;99556.28;7391347;19;20356;-59
2023/11/30 03:12:31;;;;;;;17.80;15.32;;;;;;;-1.20;97.71;99541.50;7389937;19;21539;-58
2023/11/30 03:14:58;;;;;;;17.48;15.68;;;;;;;-1.17;97.74;99549.03;7389935;19;20345;-58
2023/11/30 03:17:25;;;;;;;17.90;16.00;;;;;;;-1.15;97.91;99553.16;7392528;19;20411;-58
2023/11/30 03:19:52;;;;;;;16.83;15.02;;;;;;;-1.14;97.74;99546.19;7392770;19;20708;-59
2023/11/30 03:22:18;;;;;;;17.95;15.27;;;;;;;-1.16;97.54;99545.50;7392076;19;20767;-58
2023/11/30 03:24:45;;;;;;;16.30;14.52;;;;;;;-1.20;97.21;99536.28;7391240;19;20344;-58
2023/11/30 03:27:12;;;;;;;16.75;14.95;;;;;;;-1.25;97.12;99534.91;7392233;19;20776;-60
2023/11/30 03:29:40;;;;;;;17.52;14.70;;;;;;;-1.29;96.96;99538.72;7388810;19;20448;-58
2023/11/30 03:32:07;;;;;;;16.95;15.15;;;;;;;-1.34;96.94;99537.44;7391179;19;20348;-59
2023/11/30 03:34:34;;;;;;;19.15;15.75;;;;;;;-1.39;96.91;99535.22;7389902;19;20348;-58
2023/11/30 03:37:03;;;;;;;20.23;15.65;;;;;;;-1.46;96.79;99528.88;7392321;19;20345;-58
2023/11/30 03:39:29;;;;;;;18.30;15.38;;;;;;;-1.52;96.88;99530.19;7391045;19;21363;-57
2023/11/30 03:41:56;;;;;;;17.93;15.37;;;;;;;-1.57;97.16;99531.50;7391785;19;20938;-59
2023/11/30 03:44:23;;;;;;;20.77;16.52;;;;;;;-1.62;97.19;99525.88;7391877;19;20360;-58
2023/11/30 03:46:50;;;;;;;19.20;15.50;;;;;;;-1.68;97.04;99525.44;7392165;19;20723;-56
2023/11/30 03:49:17;;;;;;;19.55;15.10;;;;;;;-1.74;97.07;99525.94;7389248;19;20510;-58
2023/11/30 03:51:43;;;;;;;20.20;16.30;;;;;;;-1.78;97.12;99521.13;7403038;19;20372;-58
2023/11/30 03:54:10;;;;;;;19.65;16.00;;;;;;;-1.84;97.12;99522.44;7405245;19;20366;-58
2023/11/30 03:56:37;;;;;;;20.23;15.82;;;;;;;-1.88;97.24;99519.25;7405692;19;20702;-57
2023/11/30 03:59:04;;;;;;;18.80;16.33;;;;;;;-1.92;97.18;99517.03;7403979;19;20747;-57
2023/11/30 04:01:31;;;;;;;19.73;16.40;;;;;;;-1.97;97.36;99520.00;7404770;19;20336;-60
2023/11/30 04:03:57;;;;;;;20.15;16.45;;;;;;;-2.02;97.17;99518.72;7403726;19;20451;-58
2023/11/30 04:06:24;;;;;;;21.77;16.48;;;;;;;-2.08;97.20;99515.66;7404182;19;20348;-58
2023/11/30 04:08:52;;;;;;;20.98;16.77;;;;;;;-2.13;97.31;99511.78;7403913;19;20368;-59
2023/11/30 04:11:19;;;;;;;19.15;15.80;;;;;;;-2.17;97.38;99505.16;7404461;19;20364;-58
2023/11/30 04:13:47;;;;;;;18.42;15.73;;;;;;;-2.21;97.11;99504.63;7404577;19;20841;-59
2023/11/30 04:16:17;;;;;;;18.35;16.25;;;;;;;-2.26;97.11;99507.56;7402026;19;20372;-59
2023/11/30 04:18:44;;;;;;;19.08;16.42;;;;;;;-2.31;97.22;99508.88;7405271;19;20356;-58
2023/11/30 04:21:12;;;;;;;18.40;15.73;;;;;;;-2.37;97.18;99512.78;7402140;19;20881;-59
2023/11/30 04:23:38;;;;;;;17.05;14.88;;;;;;;-2.38;97.30;99510.28;7405359;19;20361;-59
2023/11/30 04:26:06;;;;;;;14.38;12.88;;;;;;;-2.41;97.19;99508.78;7402947;19;20427;-59
2023/11/30 04:28:33;;;;;;;13.70;12.10;;;;;;;-2.39;96.99;99513.84;7401075;19;20364;-57
2023/11/30 04:31:00;;;;;;;11.90;10.70;;;;;;;-2.37;96.88;99505.00;7403657;19;20382;-58
2023/11/30 04:33:27;;;;;;;11.70;10.20;;;;;;;-2.32;97.09;99507.22;7403235;19;20373;-58
2023/11/30 04:35:54;;;;;;;11.70;10.50;;;;;;;-2.27;96.85;99507.69;7402042;19;20903;-58
2023/11/30 04:38:25;;;;;;;11.68;10.43;;;;;;;-2.19;97.02;99510.50;7399600;19;20348;-58
2023/11/30 04:40:52;;;;;;;11.73;10.52;;;;;;;-2.14;97.06;99505.75;7402672;19;20369;-58
2023/11/30 04:43:19;;;;;;;13.07;10.05;;;;;;;-2.10;96.63;99507.16;7401412;19;20364;-60
2023/11/30 04:45:52;;;;;;;10.93;9.82;;;;;;;-2.02;96.47;99514.31;7405966;19;20348;-59
2023/11/30 04:48:18;;;;;;;11.32;10.07;;;;;;;-1.97;96.29;99506.19;7403296;19;20368;-59
2023/11/30 04:50:46;;;;;;;11.35;10.18;;;;;;;-1.94;95.84;99514.53;7403649;19;20421;-57
2023/11/30 04:53:12;;;;;;;12.87;10.50;;;;;;;-1.90;96.30;99517.72;7404383;19;20356;-58
2023/11/30 04:55:39;;;;;;;13.35;11.40;;;;;;;-1.92;95.95;99519.63;7404114;19;20360;-59
2023/11/30 04:58:06;;;;;;;12.93;11.63;;;;;;;-1.96;95.80;99519.03;7402349;19;20357;-58
2023/11/30 05:00:33;;;;;;;15.10;11.87;;;;;;;-2.01;96.07;99517.78;7399867;19;20376;-59
2023/11/30 05:03:00;;;;;;;14.07;11.60;;;;;;;-2.11;95.64;99515.91;7393162;19;20726;-59
2023/11/30 05:05:30;;;;;;;13.65;11.90;;;;;;;-2.20;96.18;99521.84;7395941;19;20915;-58
2023/11/30 05:07:56;;;;;;;14.23;12.73;;;;;;;-2.27;96.33;99531.06;7396722;19;20962;-59
2023/11/30 05:10:23;;;;;;;14.23;12.73;;;;;;;-2.34;96.59;99524.69;7394372;19;20369;-59
2023/11/30 05:12:50;;;;;;;14.30;12.80;;;;;;;-2.41;96.47;99520.94;7396085;19;20943;-58
2023/11/30 05:15:17;;;;;;;15.15;12.88;;;;;;;-2.51;96.32;99526.88;7396111;19;20745;-59
2023/11/30 05:17:43;;;;;;;15.70;13.90;;;;;;;-2.57;96.50;99527.34;7396168;19;20381;-57
2023/11/30 05:20:10;;;;;;;16.33;13.83;;;;;;;-2.62;96.51;99531.22;7392562;19;20876;-57
2023/11/30 05:22:37;;;;;;;15.60;13.77;;;;;;;-2.67;96.60;99534.19;7395034;19;20376;-57
2023/11/30 05:25:04;;;;;;;15.90;13.87;;;;;;;-2.72;96.76;99531.09;7395508;19;20431;-58
2023/11/30 05:27:31;;;;;;;16.13;14.05;;;;;;;-2.77;96.81;99534.06;7394930;19;20383;-58
2023/11/30 05:29:58;;;;;;;13.95;11.85;;;;;;;-2.82;96.61;99543.16;7391165;19;20711;-58
2023/11/30 05:32:25;;;;;;;14.73;12.10;;;;;;;-2.89;96.59;99538.44;7393481;19;20375;-59
2023/11/30 05:34:52;;;;;;;14.90;12.32;;;;;;;-2.94;96.75;99542.31;7393588;19;20336;-58
2023/11/30 05:37:19;;;;;;;14.43;12.15;;;;;;;-2.98;96.77;99541.72;7395641;19;20370;-58
2023/11/30 05:39:45;;;;;;;15.07;12.80;;;;;;;-3.01;96.67;99551.53;7397626;19;20865;-60
2023/11/30 05:42:12;;;;;;;16.33;13.50;;;;;;;-3.04;96.92;99547.38;7397674;19;20363;-58
2023/11/30 05:44:39;;;;;;;15.02;13.10;;;;;;;-3.07;97.05;99552.81;7394252;19;20852;-59
2023/11/30 05:47:06;;;;;;;15.00;12.73;;;;;;;-3.09;97.07;99549.50;7395339;19;20360;-60
2023/11/30 05:49:32;;;;;;;13.88;12.27;;;;;;;-3.11;97.18;99551.38;7395877;19;20376;-58
2023/11/30 05:51:59;;;;;;;12.77;11.48;;;;;;;-2.62;97.18;99559.78;7394263;19;20348;-59
2023/11/30 05:54:26;;;;;;;15.00;12.90;;;;;;;-2.64;96.68;99554.72;7394676;19;20364;-59
2023/11/30 05:56:53;;;;;;;14.25;12.20;;;;;;;-2.79;96.83;99555.88;7396952;19;20681;-59
2023/11/30 05:59:22;;;;;;;15.38;12.55;;;;;;;-2.91;96.93;99552.44;7392415;19;20898;-58
2023/11/30 06:01:49;;;;;;;17.60;14.48;;;;;;;-3.03;96.90;99549.03;7390404;19;20436;-58
2023/11/30 06:04:16;;;;;;;17.15;13.48;;;;;;;-3.10;96.91;99553.03;7395246;19;20350;-59
2023/11/30 06:06:43;;;;;;;15.80;13.30;;;;;;;-3.15;97.03;99555.13;7395655;19;20380;-58
2023/11/30 06:09:09;;;;;;;15.80;12.90;;;;;;;-3.20;96.79;99552.09;7396229;19;20355;-59
2023/11/30 06:11:36;;;;;;;13.82;11.93;;;;;;;-3.23;97.00;99554.88;7396693;19;20396;-59
2023/11/30 06:14:03;;;;;;;13.83;12.10;;;;;;;-3.26;96.91;99557.72;7396115;19;20357;-60
2023/11/30 06:16:30;;;;;;;17.65;14.48;;;;;;;-3.28;97.06;99569.03;7396657;19;20444;-57
2023/11/30 06:18:57;;;;;;;16.10;13.88;;;;;;;-3.27;97.39;99575.06;7396392;19;20722;-59
2023/11/30 06:21:23;;;;;;;17.70;14.57;;;;;;;-3.23;97.60;99575.63;7394697;19;20376;-58
2023/11/30 06:23:50;;;;;;;21.17;15.65;;;;;;;-3.16;97.75;99579.44;7396799;19;20372;-58
2023/11/30 06:26:17;;;;;;;21.47;16.77;;;;;;;-3.08;98.11;99575.34;7395170;19;20352;-59
2023/11/30 06:28:44;;;;;;;25.70;17.13;;;;;;;-2.97;98.51;99581.50;7395764;19;20347;-59
2023/11/30 06:31:14;;;;;;;24.58;17.13;;;;;;;-2.86;98.61;99581.50;7395619;19;20369;-58
2023/11/30 06:33:41;;;;;;;25.55;17.42;;;;;;;-2.74;98.52;99585.75;7396371;19;20399;-59
2023/11/30 06:36:08;;;;;;;26.00;17.73;;;;;;;-2.62;98.68;99583.97;7396036;19;20443;-58
2023/11/30 06:38:35;;;;;;;22.70;17.97;;;;;;;-2.51;98.47;99591.78;7394221;19;20880;-58
2023/11/30 06:41:10;;;;;;;25.13;18.65;;;;;;;-2.39;98.73;99591.78;7394957;19;21398;-58
2023/11/30 06:43:37;;;;;;;25.23;18.38;;;;;;;-2.27;98.59;99588.22;7393793;19;20378;-59
2023/11/30 06:46:04;;;;;;;24.95;18.27;;;;;;;-2.17;98.44;99586.53;7395273;19;20361;-58
2023/11/30 06:48:31;;;;;;;34.97;22.52;;;;;;;-2.07;98.42;99595.25;7394432;19;20661;-59
2023/11/30 06:50:57;;;;;;;34.42;24.05;;;;;;;-1.96;98.29;99598.78;7395955;19;20356;-60
2023/11/30 06:53:24;;;;;;;33.42;23.77;;;;;;;-1.89;97.96;99595.59;7395092;19;20381;-58
2023/11/30 06:55:51;;;;;;;32.90;23.02;;;;;;;-1.80;98.13;99601.81;7395405;19;20434;-59
2023/11/30 06:58:18;;;;;;;29.87;21.57;;;;;;;-1.72;98.12;99594.25;7395454;19;20376;-58
2023/11/30 07:00:45;;;;;;;29.02;21.30;;;;;;;-1.63;98.12;99597.06;7393962;19;20939;-60
2023/11/30 07:03:12;;;;;;;27.50;21.55;;;;;;;-1.56;97.96;99593.00;7392955;19;20364;-58
2023/11/30 07:05:40;;;;;;;29.13;22.52;;;;;;;-1.49;98.31;99589.78;7395464;19;20359;-58
2023/11/30 07:08:07;;;;;;;30.85;24.30;;;;;;;-1.39;98.19;99587.25;7393463;19;20416;-59
2023/11/30 07:10:33;;;;;;;31.60;24.20;;;;;;;-1.33;98.05;99578.94;7394505;19;20360;-60
2023/11/30 07:13:00;;;;;;;58.33;38.95;;;;;;;-1.24;98.22;99583.38;7392242;19;20364;-60
2023/11/30 07:15:27;;;;;;;30.53;23.40;;;;;;;-1.15;98.07;99584.38;7393358;19;20443;-61
2023/11/30 07:17:54;;;;;;;27.30;19.33;;;;;;;-1.11;97.21;99579.75;7395183;19;20383;-61
2023/11/30 07:20:20;;;;;;;29.50;20.58;;;;;;;-1.09;96.91;99576.06;7393979;19;20367;-60
2023/11/30 07:22:47;;;;;;;28.92;21.75;;;;;;;-1.01;97.29;99575.44;7393204;19;20360;-61
2023/11/30 07:25:14;;;;;;;27.83;22.42;;;;;;;-0.94;97.11;99579.16;7392688;19;20364;-60
2023/11/30 07:27:41;;;;;;;30.30;23.30;;;;;;;-0.89;96.92;99577.03;7393473;19;20451;-62
2023/11/30 07:30:09;;;;;;;27.80;22.10;;;;;;;-0.83;96.96;99576.50;7394730;19;20429;-62
2023/11/30 07:32:36;;;;;;;26.58;21.02;;;;;;;-0.76;96.83;99576.81;7394211;19;20393;-61
2023/11/30 07:35:05;;;;;;;24.77;20.98;;;;;;;-0.68;97.04;99573.53;7393255;19;20847;-62
2023/11/30 07:37:32;;;;;;;25.70;20.65;;;;;;;-0.63;96.85;99577.41;7394169;19;20356;-61
2023/11/30 07:40:00;;;;;;;25.52;20.73;;;;;;;-0.57;96.81;99581.28;7393083;19;20332;-60
2023/11/30 07:42:26;;;;;;;26.10;19.75;;;;;;;-0.52;96.50;99583.50;7391215;19;20380;-61
2023/11/30 07:45:03;;;;;;;50.65;34.08;;;;;;;-0.49;96.56;99584.06;7391515;19;20344;-61
2023/11/30 07:47:30;;;;;;;24.17;20.00;;;;;;;-0.44;96.75;99589.69;7392034;19;20363;-61
2023/11/30 07:49:57;;;;;;;23.67;19.33;;;;;;;-0.44;95.91;99583.66;7393244;19;20378;-62
2023/11/30 07:52:24;;;;;;;22.55;19.88;;;;;;;-0.44;95.46;99591.47;7390625;19;20715;-62
2023/11/30 07:54:51;;;;;;;26.33;20.48;;;;;;;-0.48;95.29;99595.31;7393403;19;20359;-60
2023/11/30 07:57:18;;;;;;;21.80;19.10;;;;;;;-0.48;95.56;99595.31;7391519;19;20357;-60
2023/11/30 07:59:45;;;;;;;24.80;20.83;;;;;;;-0.46;95.73;99599.41;7393370;19;20377;-61
2023/11/30 08:02:12;;;;;;;26.02;21.35;;;;;;;-0.44;95.76;99587.09;7390985;19;20364;-62
2023/11/30 08:04:40;;;;;;;24.52;20.90;;;;;;;-0.38;95.84;99596.19;7388859;19;20377;-62
2023/11/30 08:07:07;;;;;;;27.50;22.38;;;;;;;-0.30;96.05;99590.28;7388567;19;20424;-62
2023/11/30 08:09:34;;;;;;;24.27;20.92;;;;;;;-0.26;96.05;99589.06;7391558;19;20360;-62
2023/11/30 08:12:01;;;;;;;26.03;20.17;;;;;;;-0.20;95.87;99591.16;7391127;19;20348;-62
2023/11/30 08:14:28;;;;;;;22.02;19.50;;;;;;;-0.14;96.20;99582.78;7390318;19;20353;-62
2023/11/30 08:16:55;;;;;;;23.20;20.02;;;;;;;-0.06;96.33;99585.56;7391506;19;20364;-61
2023/11/30 08:19:22;;;;;;;23.83;20.70;;;;;;;0.01;96.25;99580.63;7392156;19;20898;-62
2023/11/30 08:21:49;;;;;;;25.23;20.25;;;;;;;0.08;96.34;99592.16;7389981;19;20391;-62
2023/11/30 08:24:16;;;;;;;26.60;21.73;;;;;;;0.14;95.93;99586.41;7393102;19;20364;-62
2023/11/30 08:26:43;;;;;;;24.55;20.50;;;;;;;0.20;95.72;99593.69;7391037;19;20871;-62
2023/11/30 08:29:10;;;;;;;23.30;19.23;;;;;;;0.29;95.19;99594.66;7390625;19;20432;-62
2023/11/30 08:31:36;;;;;;;25.48;19.88;;;;;;;0.43;95.50;99595.25;7391471;19;20340;-61
2023/11/30 08:34:04;;;;;;;23.13;19.27;;;;;;;0.57;95.54;99595.66;7389228;19;20363;-61
2023/11/30 08:36:30;;;;;;;24.52;19.90;;;;;;;0.66;94.78;99596.63;7394711;19;20368;-62
2023/11/30 08:38:57;;;;;;;23.27;20.58;;;;;;;0.73;94.07;99602.09;7398194;19;20365;-62
2023/11/30 08:41:24;;;;;;;25.88;20.77;;;;;;;0.82;94.11;99596.03;7397355;19;20716;-61
2023/11/30 08:43:51;;;;;;;25.40;20.50;;;;;;;0.90;94.35;99588.34;7399625;19;20353;-61
2023/11/30 08:46:18;;;;;;;23.88;19.90;;;;;;;0.99;94.23;99597.94;7399447;19;20425;-61
2023/11/30 08:48:45;;;;;;;23.50;20.33;;;;;;;1.05;93.52;99596.56;7398450;19;20423;-61
2023/11/30 08:51:12;;;;;;;25.88;20.33;;;;;;;1.10;93.36;99594.34;7397534;19;20333;-62
2023/11/30 08:53:40;;;;;;;24.35;21.63;;;;;;;1.19;93.69;99593.50;7399110;19;20360;-62
2023/11/30 08:56:07;;;;;;;25.20;22.00;;;;;;;1.30;93.76;99589.06;7399108;19;20427;-62
2023/11/30 08:58:34;;;;;;;24.38;21.17;;;;;;;1.37;93.17;99584.91;7396964;19;20872;-62
2023/11/30 09:01:01;;;;;;;24.20;20.63;;;;;;;1.43;93.13;99584.34;7396987;19;20374;-62
2023/11/30 09:03:28;;;;;;;22.73;19.65;;;;;;;1.51;93.12;99576.63;7396683;19;20348;-63
2023/11/30 09:05:54;;;;;;;23.65;20.85;;;;;;;1.56;92.82;99571.78;7394605;19;20400;-62
2023/11/30 09:08:21;;;;;;;24.60;20.15;;;;;;;1.55;91.82;99583.22;7392948;19;20332;-61
2023/11/30 09:10:48;;;;;;;22.13;19.60;;;;;;;1.57;91.66;99583.03;7398462;19;20352;-61
2023/11/30 09:13:15;;;;;;;22.40;19.38;;;;;;;1.58;91.17;99582.09;7398765;19;20413;-61
2023/11/30 09:15:42;;;;;;;22.88;20.15;;;;;;;1.57;91.21;99568.19;7398700;19;20373;-60
2023/11/30 09:18:10;;;;;;;23.80;19.80;;;;;;;1.65;91.51;99564.03;7398300;19;20409;-62
2023/11/30 09:20:38;;;;;;;24.13;20.67;;;;;;;1.74;92.00;99566.59;7398525;19;20723;-61
2023/11/30 09:23:05;;;;;;;24.60;21.17;;;;;;;1.87;91.78;99561.03;7395881;19;20384;-62
2023/11/30 09:25:33;;;;;;;23.63;21.05;;;;;;;1.98;91.48;99567.84;7397390;19;20345;-62
2023/11/30 09:27:59;;;;;;;23.98;20.65;;;;;;;2.15;90.77;99568.84;7397156;19;20428;-62
2023/11/30 09:30:26;;;;;;;23.23;20.65;;;;;;;2.28;90.80;99558.81;7397282;19;20660;-62
2023/11/30 09:32:53;;;;;;;23.20;20.70;;;;;;;2.49;91.51;99565.53;7397304;19;20352;-62
2023/11/30 09:35:20;;;;;;;23.50;21.00;;;;;;;2.68;91.07;99565.38;7395566;19;20353;-62
2023/11/30 09:37:48;;;;;;;21.93;19.57;;;;;;;2.80;90.16;99558.91;7390678;19;20359;-62
2023/11/30 09:40:15;;;;;;;22.15;19.85;;;;;;;2.85;89.31;99550.63;7396420;19;20893;-62
2023/11/30 09:42:42;;;;;;;22.50;20.17;;;;;;;2.90;89.39;99558.81;7393532;19;20719;-65
2023/11/30 09:45:09;;;;;;;21.20;19.02;;;;;;;2.96;89.05;99560.00;7395224;19;20385;-62
2023/11/30 09:47:36;;;;;;;23.52;20.90;;;;;;;2.95;88.61;99550.50;7390664;19;20416;-63
2023/11/30 09:50:03;;;;;;;25.13;22.13;;;;;;;2.94;87.95;99548.88;7384827;19;20380;-62
2023/11/30 09:52:31;;;;;;;25.33;21.48;;;;;;;2.89;87.67;99549.34;7394987;19;20901;-62
2023/11/30 09:54:58;;;;;;;21.50;19.13;;;;;;;2.86;87.61;99547.81;7397236;19;20340;-62
2023/11/30 09:57:25;;;;;;;21.35;18.85;;;;;;;2.89;88.08;99548.50;7395131;19;20907;-62
2023/11/30 09:59:53;;;;;;;21.75;19.45;;;;;;;2.88;87.64;99544.25;7393167;19;20336;-62
2023/11/30 10:02:19;;;;;;;21.38;18.80;;;;;;;2.86;87.42;99545.19;7394465;19;20369;-63
2023/11/30 10:04:46;;;;;;;20.52;18.38;;;;;;;2.85;86.75;99548.81;7393590;19;20356;-63
2023/11/30 10:07:13;;;;;;;21.08;18.65;;;;;;;2.83;86.94;99547.31;7395051;19;20715;-62
2023/11/30 10:09:40;;;;;;;20.85;18.27;;;;;;;2.85;87.02;99540.13;7396776;19;20430;-63
2023/11/30 10:12:07;;;;;;;19.83;17.55;;;;;;;2.83;86.56;99544.72;7395971;19;20397;-63
2023/11/30 10:14:34;;;;;;;19.67;17.57;;;;;;;2.82;86.42;99535.19;7393139;19;20407;-62
2023/11/30 10:17:01;;;;;;;19.27;17.27;;;;;;;2.82;86.54;99536.00;7394593;19;20384;-63
2023/11/30 10:19:30;;;;;;;20.42;17.58;;;;;;;2.80;86.21;99530.09;7393718;19;20360;-63
2023/11/30 10:21:57;;;;;;;19.20;17.30;;;;;;;2.79;86.24;99531.09;7394653;19;20371;-63
2023/11/30 10:24:26;;;;;;;19.38;17.30;;;;;;;2.78;86.14;99534.66;7393674;19;20371;-63
2023/11/30 10:26:58;;;;;;;19.88;17.88;;;;;;;2.75;85.94;99529.75;7394506;19;20868;-63
2023/11/30 10:29:27;;;;;;;19.35;17.35;;;;;;;2.73;85.91;99529.06;7392915;19;20900;-63
2023/11/30 10:31:56;;;;;;;20.20;17.63;;;;;;;2.69;86.03;99525.13;7388777;19;20372;-63
2023/11/30 10:34:28;;;;;;;19.27;17.27;;;;;;;2.72;86.45;99523.97;7393187;19;20364;-63
2023/11/30 10:36:58;;;;;;;22.17;18.90;;;;;;;2.73;86.85;99518.59;7391390;19;20373;-63
2023/11/30 10:39:33;;;;;;;19.75;17.73;;;;;;;2.74;86.41;99517.66;7387724;19;20876;-63
2023/11/30 10:42:08;;;;;;;19.77;17.60;;;;;;;2.75;86.13;99514.03;7393207;19;20436;-63
2023/11/30 10:44:37;;;;;;;20.77;18.55;;;;;;;2.76;86.26;99523.56;7389284;19;20352;-63
2023/11/30 10:47:09;;;;;;;19.95;17.85;;;;;;;2.77;85.62;99514.69;7390411;19;20412;-63
2023/11/30 10:49:36;;;;;;;20.40;18.30;;;;;;;2.78;85.80;99513.72;7389080;19;20367;-63
2023/11/30 10:52:04;;;;;;;20.00;17.85;;;;;;;2.81;85.64;99518.66;7388911;19;20408;-63
2023/11/30 10:54:42;;;;;;;19.55;17.50;;;;;;;2.85;85.47;99506.91;7389558;19;20340;-63
2023/11/30 10:57:09;;;;;;;21.58;18.40;;;;;;;2.86;85.40;99510.34;7389697;19;20364;-64
2023/11/30 10:59:43;;;;;;;21.73;18.25;;;;;;;2.87;85.21;99506.75;7392365;19;20365;-63
2023/11/30 11:02:14;;;;;;;20.67;18.53;;;;;;;2.91;85.33;99499.38;7393878;19;20390;-63
2023/11/30 11:04:42;;;;;;;20.52;18.42;;;;;;;2.96;85.27;99494.53;7393984;19;20364;-63
2023/11/30 11:07:12;;;;;;;20.27;17.70;;;;;;;2.96;84.99;99490.09;7394207;19;20353;-63
2023/11/30 11:09:44;;;;;;;20.40;18.35;;;;;;;3.05;84.90;99496.19;7390971;19;20393;-63
2023/11/30 11:12:19;;;;;;;20.85;18.65;;;;;;;3.11;84.83;99492.16;7394372;19;20372;-63
2023/11/30 11:14:48;;;;;;;21.00;18.48;;;;;;;3.16;84.34;99487.25;7393937;19;20844;-63
2023/11/30 11:17:19;;;;;;;20.13;18.03;;;;;;;3.19;84.05;99487.75;7391561;19;20341;-63
2023/11/30 11:19:46;;;;;;;20.67;18.48;;;;;;;3.34;83.63;99484.56;7393781;19;20368;-63
2023/11/30 11:22:34;;;;;;;20.45;18.25;;;;;;;3.46;83.09;99496.38;7390555;19;20372;-63